General Aviation Weather

Text Reports

Enter one or more of the following location identifiers separated by a space:

Zip Code, Four-Character ICAO or Three-Character IATA airport codes.

METAR - Aviation Routine Weather Report
KMWA - Marion Regional, Illinois
Updated at 6:54 PM GMT on July 24, 2014 (1:54 PM CDT):
METAR KMWA 241854Z 02010KT 20SM SCT038 BKN050 26/16 A3009
TAF - Terminal Area Forecast
KMWA - Marion Regional, Illinois
Updated at 6:54 PM GMT on July 24, 2014 (1:54 PM CDT):
No TAF is currently available for this location.
Decoded:
No decoded TAF is available.
PIREP - Pilot Weather Report
KMWA - Marion Regional, Illinois
Updated at 6:54 PM GMT on July 24, 2014 (1:54 PM CDT):
No PIREP is currently available for this location.
AIRMET - Airmens Meteorological Information
KMWA - Marion Regional, Illinois
Updated at 6:54 PM GMT on July 24, 2014 (1:54 PM CDT):
No AIRMET is currently available for this location.
SIGMET - Significant Meteorological Information
KMWA - Marion Regional, Illinois
Updated at 6:54 PM GMT on July 24, 2014 (1:54 PM CDT):
No SIGMET is currently available for this location.
NOTAM - Notice to Airmen
KMWA - Marion Regional, Illinois
Updated at 6:54 PM GMT on July 24, 2014 (1:54 PM CDT):
No NOTAM is currently available for this location.
Forecast Area
KMWA - Marion Regional, Illinois
Updated at 6:54 PM GMT on July 24, 2014 (1:54 PM CDT):
No NOTAM is currently available for this location.
Aviation Weather Maps